Time;durP1;ratioP1;P1;durP2;ratioP2;P2;SDS_P1;SDS_P2;PMS_P1;PMS_P2;Temp;Humidity;BMP_temperature;BMP_pressure;BME280_temperature;BME280_humidity;BME280_pressure;Samples;Min_cycle;Max_cycle;Signal;HPM_P1;HPM_P2
2022/03/29 00:01:13;;;;;;;15.45;10.00;;;;;;;;;;5053620;28;20540;-70
2022/03/29 00:03:39;;;;;;;17.38;10.07;;;;;;;;;;5047590;28;20032;-70
2022/03/29 00:06:05;;;;;;;15.63;10.00;;;;;;;;;;5045762;28;20151;-70
2022/03/29 00:08:31;;;;;;;17.70;10.35;;;;;;;;;;5043513;28;20101;-70
2022/03/29 00:10:57;;;;;;;15.75;10.40;;;;;;;;;;5044735;28;20105;-70
2022/03/29 00:13:23;;;;;;;16.58;10.68;;;;;;;;;;5050974;28;20329;-69
2022/03/29 00:15:49;;;;;;;17.23;11.07;;;;;;;;;;5048160;28;20029;-70
2022/03/29 00:18:15;;;;;;;17.33;11.05;;;;;;;;;;5038326;28;20125;-70
2022/03/29 00:20:41;;;;;;;16.80;10.77;;;;;;;;;;5037220;28;20021;-70
2022/03/29 00:23:07;;;;;;;15.75;10.25;;;;;;;;;;5045207;28;20377;-70
2022/03/29 00:25:33;;;;;;;17.17;9.98;;;;;;;;;;5047757;28;20044;-70
2022/03/29 00:27:59;;;;;;;17.75;10.85;;;;;;;;;;5050406;28;20036;-70
2022/03/29 00:30:25;;;;;;;17.48;10.38;;;;;;;;;;5046579;28;20024;-69
2022/03/29 00:32:51;;;;;;;16.27;9.98;;;;;;;;;;5044923;28;20029;-70
2022/03/29 00:35:17;;;;;;;15.27;9.65;;;;;;;;;;5046590;28;20532;-69
2022/03/29 00:37:43;;;;;;;21.45;10.32;;;;;;;;;;5044633;28;20401;-70
2022/03/29 00:40:11;;;;;;;17.27;10.23;;;;;;;;;;5052766;28;20021;-70
2022/03/29 00:42:37;;;;;;;16.70;10.80;;;;;;;;;;5044800;28;20120;-70
2022/03/29 00:45:03;;;;;;;15.35;9.93;;;;;;;;;;5044418;28;20445;-70
2022/03/29 00:47:29;;;;;;;17.08;11.00;;;;;;;;;;5044800;28;20116;-70
2022/03/29 00:49:56;;;;;;;16.52;10.07;;;;;;;;;;5044557;28;20061;-70
2022/03/29 00:52:22;;;;;;;17.45;9.68;;;;;;;;;;5049275;28;20404;-70
2022/03/29 00:54:48;;;;;;;14.27;9.43;;;;;;;;;;5046891;28;20021;-70
2022/03/29 00:57:15;;;;;;;17.13;9.80;;;;;;;;;;5044497;28;20040;-70
2022/03/29 00:59:43;;;;;;;18.08;10.70;;;;;;;;;;5045585;28;20044;-70
2022/03/29 01:02:09;;;;;;;16.55;10.25;;;;;;;;;;5045020;28;20360;-69
2022/03/29 01:04:35;;;;;;;15.52;9.73;;;;;;;;;;5025054;28;20025;-70
2022/03/29 01:07:01;;;;;;;18.33;10.70;;;;;;;;;;5046816;28;20379;-70
2022/03/29 01:09:28;;;;;;;15.68;10.25;;;;;;;;;;5034726;28;20503;-70
2022/03/29 01:11:54;;;;;;;14.50;9.38;;;;;;;;;;5037648;28;20112;-70
2022/03/29 01:14:21;;;;;;;18.88;10.88;;;;;;;;;;5045427;28;20021;-70
2022/03/29 01:19:31;;;;;;;18.08;10.55;;;;;;;;;;5048071;28;20108;-70
2022/03/29 01:21:58;;;;;;;16.83;9.93;;;;;;;;;;5038316;28;20021;-69
2022/03/29 01:24:28;;;;;;;13.80;9.23;;;;;;;;;;5041746;28;20031;-70
2022/03/29 01:26:56;;;;;;;14.95;9.32;;;;;;;;;;5044126;28;20056;-70
2022/03/29 01:29:22;;;;;;;16.58;9.93;;;;;;;;;;5044029;28;20032;-70
2022/03/29 01:31:49;;;;;;;16.05;10.25;;;;;;;;;;5043509;28;20502;-70
2022/03/29 01:34:16;;;;;;;16.23;10.40;;;;;;;;;;5050509;28;20037;-70
2022/03/29 01:36:42;;;;;;;16.52;9.73;;;;;;;;;;5045121;28;20064;-70
2022/03/29 01:39:08;;;;;;;15.20;9.55;;;;;;;;;;5043765;28;20029;-70
2022/03/29 01:41:34;;;;;;;16.48;10.55;;;;;;;;;;5043920;28;20056;-70
2022/03/29 01:44:00;;;;;;;17.25;9.48;;;;;;;;;;5043146;28;20017;-70
2022/03/29 01:46:26;;;;;;;17.00;9.80;;;;;;;;;;5047848;28;20033;-70
2022/03/29 01:48:52;;;;;;;17.30;9.68;;;;;;;;;;5046420;28;20025;-70
2022/03/29 01:51:18;;;;;;;15.32;9.20;;;;;;;;;;5043600;28;20128;-70
2022/03/29 01:53:46;;;;;;;15.65;9.43;;;;;;;;;;5043673;28;20108;-70
2022/03/29 01:56:12;;;;;;;15.75;9.27;;;;;;;;;;5042726;28;20111;-70
2022/03/29 01:58:38;;;;;;;15.35;9.85;;;;;;;;;;5037076;28;20037;-70
2022/03/29 02:01:04;;;;;;;17.13;10.10;;;;;;;;;;5049737;28;20465;-70
2022/03/29 02:03:30;;;;;;;19.15;9.48;;;;;;;;;;5043562;28;20091;-70
2022/03/29 02:05:56;;;;;;;16.58;9.52;;;;;;;;;;5043988;28;20481;-70
2022/03/29 02:08:23;;;;;;;16.63;10.07;;;;;;;;;;5042712;28;20032;-69
2022/03/29 02:10:49;;;;;;;14.38;9.45;;;;;;;;;;5043269;28;20030;-70
2022/03/29 02:13:16;;;;;;;15.98;9.65;;;;;;;;;;5050565;28;20533;-69
2022/03/29 02:15:42;;;;;;;15.30;9.70;;;;;;;;;;5044310;28;20063;-69
2022/03/29 02:18:08;;;;;;;16.15;9.85;;;;;;;;;;5044078;28;20567;-69
2022/03/29 02:20:34;;;;;;;15.65;10.35;;;;;;;;;;5043911;28;20036;-71
2022/03/29 02:23:07;;;;;;;17.27;10.30;;;;;;;;;;5043049;28;20117;-69
2022/03/29 02:25:33;;;;;;;16.23;10.02;;;;;;;;;;5044029;28;20041;-69
2022/03/29 02:27:59;;;;;;;14.73;9.32;;;;;;;;;;5048359;28;20056;-69
2022/03/29 02:30:26;;;;;;;15.75;9.45;;;;;;;;;;5042763;28;20021;-69
2022/03/29 02:32:52;;;;;;;17.20;10.30;;;;;;;;;;5042864;28;20527;-70
2022/03/29 02:35:18;;;;;;;14.15;9.40;;;;;;;;;;5042422;28;20054;-69
2022/03/29 02:37:44;;;;;;;15.20;9.65;;;;;;;;;;5043192;28;20076;-69
2022/03/29 02:40:13;;;;;;;18.27;9.70;;;;;;;;;;5050869;28;20017;-70
2022/03/29 02:42:51;;;;;;;14.43;9.13;;;;;;;;;;5045008;28;20109;-70
2022/03/29 02:45:18;;;;;;;15.73;10.20;;;;;;;;;;5043810;28;20430;-69
2022/03/29 02:47:45;;;;;;;14.90;9.97;;;;;;;;;;5042510;28;20033;-70
2022/03/29 02:50:12;;;;;;;16.33;9.43;;;;;;;;;;5042912;28;20504;-69
2022/03/29 02:52:44;;;;;;;16.48;9.45;;;;;;;;;;5044809;28;20014;-69
2022/03/29 02:55:11;;;;;;;15.88;9.15;;;;;;;;;;5041642;28;20037;-69
2022/03/29 02:57:37;;;;;;;14.13;9.52;;;;;;;;;;5039748;28;20042;-70
2022/03/29 03:00:05;;;;;;;16.15;10.23;;;;;;;;;;5041313;28;20017;-70
2022/03/29 03:02:32;;;;;;;16.05;9.50;;;;;;;;;;5046331;28;20032;-69
2022/03/29 03:04:59;;;;;;;17.50;10.05;;;;;;;;;;5047044;28;20025;-69
2022/03/29 03:07:25;;;;;;;16.50;9.65;;;;;;;;;;5051720;28;20029;-69
2022/03/29 03:09:51;;;;;;;16.08;9.60;;;;;;;;;;5049367;28;20025;-69
2022/03/29 03:12:17;;;;;;;17.45;9.75;;;;;;;;;;5046155;28;20047;-69
2022/03/29 03:14:43;;;;;;;15.32;9.68;;;;;;;;;;5047925;28;20503;-69
2022/03/29 03:17:09;;;;;;;15.27;9.60;;;;;;;;;;5046381;28;20068;-69
2022/03/29 03:19:35;;;;;;;19.13;10.32;;;;;;;;;;5048895;28;20057;-69
2022/03/29 03:22:01;;;;;;;16.40;10.15;;;;;;;;;;5052243;28;20021;-69
2022/03/29 03:24:27;;;;;;;18.33;10.00;;;;;;;;;;5045831;28;20029;-69
2022/03/29 03:26:53;;;;;;;15.35;10.23;;;;;;;;;;5045837;28;20098;-69
2022/03/29 03:29:19;;;;;;;16.33;10.00;;;;;;;;;;5046096;28;20083;-67
2022/03/29 03:31:45;;;;;;;17.58;10.05;;;;;;;;;;5046032;28;20488;-68
2022/03/29 03:34:11;;;;;;;13.43;8.70;;;;;;;;;;5053911;28;20021;-68
2022/03/29 03:36:37;;;;;;;18.60;9.25;;;;;;;;;;5032958;28;20033;-68
2022/03/29 03:39:04;;;;;;;15.40;9.85;;;;;;;;;;5035611;28;20026;-68
2022/03/29 03:41:30;;;;;;;14.85;9.88;;;;;;;;;;5034408;28;20021;-67
2022/03/29 03:43:56;;;;;;;15.35;9.02;;;;;;;;;;5032316;28;20810;-68
2022/03/29 03:46:22;;;;;;;14.68;9.27;;;;;;;;;;5034319;28;20100;-68
2022/03/29 03:48:48;;;;;;;16.30;9.52;;;;;;;;;;5049226;28;20370;-68
2022/03/29 03:51:14;;;;;;;16.10;9.10;;;;;;;;;;5034789;28;20021;-67
2022/03/29 03:53:40;;;;;;;15.48;9.98;;;;;;;;;;5034887;28;20017;-65
2022/03/29 03:56:06;;;;;;;18.20;10.13;;;;;;;;;;5031944;28;20047;-67
2022/03/29 03:58:32;;;;;;;14.95;9.70;;;;;;;;;;5032823;28;20063;-68
2022/03/29 04:00:58;;;;;;;16.50;9.85;;;;;;;;;;5036651;28;20109;-68
2022/03/29 04:03:24;;;;;;;16.90;10.10;;;;;;;;;;5043004;28;20021;-68
2022/03/29 04:05:52;;;;;;;16.70;9.23;;;;;;;;;;5044500;28;20540;-68
2022/03/29 04:08:18;;;;;;;15.10;9.45;;;;;;;;;;5044854;28;20021;-68
2022/03/29 04:10:44;;;;;;;15.38;9.80;;;;;;;;;;5044876;28;20026;-68
2022/03/29 04:13:10;;;;;;;14.15;8.85;;;;;;;;;;5045135;28;20028;-68
2022/03/29 04:15:37;;;;;;;15.27;9.15;;;;;;;;;;5044702;28;20025;-68
2022/03/29 04:18:03;;;;;;;16.45;9.93;;;;;;;;;;5045072;28;20040;-68
2022/03/29 04:20:29;;;;;;;15.15;9.30;;;;;;;;;;5045022;28;20031;-67
2022/03/29 04:22:55;;;;;;;18.30;9.48;;;;;;;;;;5045348;28;20026;-68
2022/03/29 04:25:22;;;;;;;17.15;10.05;;;;;;;;;;5050394;28;20086;-66
2022/03/29 04:27:48;;;;;;;16.88;9.88;;;;;;;;;;5047503;28;20392;-68
2022/03/29 04:30:14;;;;;;;15.48;10.50;;;;;;;;;;5044721;28;20021;-68
2022/03/29 04:32:40;;;;;;;15.25;9.07;;;;;;;;;;5045088;28;20040;-68
2022/03/29 04:35:06;;;;;;;15.10;9.63;;;;;;;;;;5044857;28;20036;-68
2022/03/29 04:37:32;;;;;;;16.52;9.90;;;;;;;;;;5047449;28;20033;-68
2022/03/29 04:39:58;;;;;;;15.43;9.55;;;;;;;;;;5049666;28;20075;-69
2022/03/29 04:42:24;;;;;;;15.27;9.82;;;;;;;;;;5045148;28;20033;-68
2022/03/29 04:44:50;;;;;;;13.63;9.27;;;;;;;;;;5044625;28;20036;-68
2022/03/29 04:47:16;;;;;;;15.52;10.38;;;;;;;;;;5044167;28;20044;-69
2022/03/29 04:49:42;;;;;;;17.42;9.48;;;;;;;;;;5045429;28;20048;-69
2022/03/29 04:52:08;;;;;;;15.27;9.65;;;;;;;;;;5052340;28;20435;-68
2022/03/29 04:54:34;;;;;;;18.25;9.82;;;;;;;;;;5045800;28;20029;-71
2022/03/29 04:57:00;;;;;;;18.17;10.43;;;;;;;;;;5044579;28;20040;-71
2022/03/29 04:59:26;;;;;;;16.10;10.02;;;;;;;;;;5035830;28;20028;-70
2022/03/29 05:01:52;;;;;;;23.20;13.43;;;;;;;;;;5045018;28;20022;-70
2022/03/29 05:04:19;;;;;;;20.90;12.05;;;;;;;;;;5049592;28;20025;-70
2022/03/29 05:06:45;;;;;;;21.85;13.45;;;;;;;;;;5046247;28;20032;-69
2022/03/29 05:09:11;;;;;;;21.17;12.50;;;;;;;;;;5045598;28;20037;-68
2022/03/29 05:11:37;;;;;;;22.98;12.60;;;;;;;;;;5044797;28;20057;-69
2022/03/29 05:14:03;;;;;;;24.80;13.77;;;;;;;;;;5043984;28;20109;-69
2022/03/29 05:16:29;;;;;;;21.38;11.98;;;;;;;;;;5047763;28;20025;-69
2022/03/29 05:18:55;;;;;;;22.50;12.82;;;;;;;;;;5050255;28;20039;-69
2022/03/29 05:21:21;;;;;;;22.13;12.75;;;;;;;;;;5044086;28;20397;-70
2022/03/29 05:23:47;;;;;;;19.38;12.35;;;;;;;;;;5044090;28;20075;-69
2022/03/29 05:26:13;;;;;;;19.65;10.60;;;;;;;;;;5043605;28;20137;-69
2022/03/29 05:28:39;;;;;;;18.02;11.02;;;;;;;;;;5045231;28;20022;-69
2022/03/29 05:31:06;;;;;;;17.23;10.57;;;;;;;;;;5050644;28;20420;-67
2022/03/29 05:33:32;;;;;;;16.95;11.43;;;;;;;;;;5043884;28;20071;-67
2022/03/29 05:35:58;;;;;;;17.30;11.70;;;;;;;;;;5043938;28;20021;-66
2022/03/29 05:38:24;;;;;;;24.60;14.40;;;;;;;;;;5043036;28;20531;-66
2022/03/29 05:40:50;;;;;;;23.77;13.80;;;;;;;;;;5043785;28;20083;-66
2022/03/29 05:43:17;;;;;;;19.88;12.07;;;;;;;;;;5051051;28;20029;-66
2022/03/29 05:45:45;;;;;;;17.40;11.38;;;;;;;;;;5048073;28;20428;-66
2022/03/29 05:50:55;;;;;;;18.15;11.57;;;;;;;;;;5043946;28;20468;-68
2022/03/29 05:53:23;;;;;;;18.50;11.95;;;;;;;;;;5044472;28;20055;-68
2022/03/29 05:55:50;;;;;;;20.02;13.05;;;;;;;;;;5043570;28;20116;-68
2022/03/29 05:58:17;;;;;;;21.75;12.60;;;;;;;;;;5042121;28;20040;-68
2022/03/29 06:00:44;;;;;;;20.90;12.07;;;;;;;;;;5044907;28;20025;-68
2022/03/29 06:03:10;;;;;;;17.00;11.60;;;;;;;;;;5043587;28;20021;-68
2022/03/29 06:05:36;;;;;;;18.67;11.52;;;;;;;;;;5044377;28;20028;-66
2022/03/29 06:08:02;;;;;;;17.95;11.60;;;;;;;;;;5043431;28;20113;-66
2022/03/29 06:10:28;;;;;;;18.83;12.48;;;;;;;;;;5047868;28;20448;-66
2022/03/29 06:12:54;;;;;;;19.75;11.43;;;;;;;;;;5046955;28;20398;-66
2022/03/29 06:15:20;;;;;;;19.08;12.00;;;;;;;;;;5043143;28;20103;-66
2022/03/29 06:17:46;;;;;;;19.40;11.50;;;;;;;;;;5044411;28;20508;-66
2022/03/29 06:20:12;;;;;;;17.92;11.30;;;;;;;;;;5042810;28;20017;-66
2022/03/29 06:22:41;;;;;;;19.55;11.48;;;;;;;;;;5043824;28;20548;-66
2022/03/29 06:25:08;;;;;;;19.83;11.48;;;;;;;;;;5049970;28;20017;-66
2022/03/29 06:27:34;;;;;;;19.58;12.80;;;;;;;;;;5042596;28;20021;-66
2022/03/29 06:30:00;;;;;;;16.30;11.10;;;;;;;;;;5043177;28;20041;-66
2022/03/29 06:32:26;;;;;;;19.45;11.30;;;;;;;;;;5042740;28;20124;-66
2022/03/29 06:34:52;;;;;;;19.33;12.48;;;;;;;;;;5042129;28;20152;-66
2022/03/29 06:37:18;;;;;;;22.10;11.88;;;;;;;;;;5049644;28;20111;-66
2022/03/29 06:39:44;;;;;;;16.80;10.68;;;;;;;;;;5048171;28;20396;-67
2022/03/29 06:42:10;;;;;;;20.15;11.90;;;;;;;;;;5038760;28;20540;-66
2022/03/29 06:44:36;;;;;;;23.38;11.98;;;;;;;;;;5042255;28;20041;-66
2022/03/29 06:47:03;;;;;;;18.95;11.15;;;;;;;;;;5043872;28;20033;-66
2022/03/29 06:49:29;;;;;;;17.77;11.85;;;;;;;;;;5047038;28;20392;-66
2022/03/29 06:51:56;;;;;;;15.48;10.77;;;;;;;;;;5046671;28;20075;-66
2022/03/29 06:54:22;;;;;;;19.33;11.32;;;;;;;;;;5044191;28;20025;-66
2022/03/29 06:56:48;;;;;;;17.45;11.02;;;;;;;;;;5042330;28;20036;-66
2022/03/29 06:59:14;;;;;;;18.58;11.15;;;;;;;;;;5036364;28;20040;-66
2022/03/29 07:01:40;;;;;;;17.27;11.40;;;;;;;;;;5043028;28;20069;-66
2022/03/29 07:04:07;;;;;;;18.77;11.10;;;;;;;;;;5049356;28;20389;-66
2022/03/29 07:06:33;;;;;;;15.70;10.55;;;;;;;;;;5046574;28;20029;-66
2022/03/29 07:11:45;;;;;;;19.90;11.23;;;;;;;;;;5035657;28;20063;-65
2022/03/29 07:14:12;;;;;;;19.23;11.50;;;;;;;;;;5044059;28;20581;-65
2022/03/29 07:16:39;;;;;;;15.73;11.77;;;;;;;;;;5042739;28;20044;-65
2022/03/29 07:19:08;;;;;;;16.13;11.55;;;;;;;;;;5049781;28;20474;-64
2022/03/29 07:21:34;;;;;;;17.65;10.98;;;;;;;;;;5046244;28;20026;-65
2022/03/29 07:24:01;;;;;;;21.08;12.40;;;;;;;;;;5037650;28;20025;-65
2022/03/29 07:26:30;;;;;;;18.27;12.02;;;;;;;;;;5042668;28;20028;-65
2022/03/29 07:28:56;;;;;;;17.88;11.35;;;;;;;;;;5042378;28;20331;-65
2022/03/29 07:31:22;;;;;;;17.52;11.48;;;;;;;;;;5047505;28;20056;-65
2022/03/29 07:33:48;;;;;;;14.70;10.88;;;;;;;;;;5047680;28;20028;-65
2022/03/29 07:36:14;;;;;;;15.80;11.65;;;;;;;;;;5038822;28;20473;-65
2022/03/29 07:38:41;;;;;;;17.73;11.52;;;;;;;;;;5044112;28;20033;-65
2022/03/29 07:41:07;;;;;;;15.15;11.27;;;;;;;;;;5042252;28;20022;-65
2022/03/29 07:43:33;;;;;;;15.68;11.18;;;;;;;;;;5045511;28;20365;-64
2022/03/29 07:45:59;;;;;;;19.45;11.65;;;;;;;;;;5048674;28;20405;-65
2022/03/29 07:48:25;;;;;;;18.52;11.75;;;;;;;;;;5049871;28;20080;-64
2022/03/29 07:50:51;;;;;;;17.00;11.82;;;;;;;;;;5049492;28;20033;-66
2022/03/29 07:53:17;;;;;;;15.38;11.27;;;;;;;;;;5049750;28;20435;-66
2022/03/29 07:55:43;;;;;;;21.05;12.55;;;;;;;;;;5045186;28;20022;-66
2022/03/29 07:58:09;;;;;;;14.88;11.63;;;;;;;;;;5055417;28;20095;-66
2022/03/29 08:00:36;;;;;;;16.35;12.43;;;;;;;;;;5047240;28;20596;-66
2022/03/29 08:03:06;;;;;;;16.15;12.57;;;;;;;;;;5045807;28;20112;-67
2022/03/29 08:05:32;;;;;;;15.43;10.82;;;;;;;;;;5045060;28;20020;-65
2022/03/29 08:07:59;;;;;;;16.83;11.77;;;;;;;;;;5045677;28;20045;-66
2022/03/29 08:10:29;;;;;;;15.98;11.43;;;;;;;;;;5049260;28;20024;-66
2022/03/29 08:12:59;;;;;;;15.82;11.88;;;;;;;;;;5049576;28;20032;-66
2022/03/29 08:15:26;;;;;;;18.00;11.45;;;;;;;;;;5045291;28;20025;-66
2022/03/29 08:17:53;;;;;;;17.48;11.98;;;;;;;;;;5044918;28;20068;-66
2022/03/29 08:20:20;;;;;;;17.48;11.30;;;;;;;;;;5047978;28;20013;-67
2022/03/29 08:22:46;;;;;;;16.80;11.45;;;;;;;;;;5045108;28;20033;-67
2022/03/29 08:25:13;;;;;;;18.15;11.85;;;;;;;;;;5053154;28;20027;-67
2022/03/29 08:27:39;;;;;;;16.50;11.20;;;;;;;;;;5045592;28;20063;-67
2022/03/29 08:30:06;;;;;;;19.85;12.18;;;;;;;;;;5044906;28;20030;-67
2022/03/29 08:32:32;;;;;;;17.02;12.25;;;;;;;;;;5045149;28;20405;-67
2022/03/29 08:34:58;;;;;;;16.35;12.30;;;;;;;;;;5045285;28;20026;-66
2022/03/29 08:37:24;;;;;;;16.27;12.00;;;;;;;;;;5049869;28;20044;-66
2022/03/29 08:39:50;;;;;;;17.90;12.85;;;;;;;;;;5047720;28;20033;-67
2022/03/29 08:42:20;;;;;;;16.60;12.60;;;;;;;;;;5044850;28;20039;-67
2022/03/29 08:44:46;;;;;;;19.48;12.18;;;;;;;;;;5044528;28;20021;-66
2022/03/29 08:47:15;;;;;;;17.65;12.45;;;;;;;;;;5046578;28;20112;-67
2022/03/29 08:49:42;;;;;;;15.65;12.43;;;;;;;;;;5044802;28;20036;-67
2022/03/29 08:52:08;;;;;;;16.42;12.27;;;;;;;;;;5052247;28;20033;-67
2022/03/29 08:54:34;;;;;;;17.35;11.93;;;;;;;;;;5043783;28;20123;-66
2022/03/29 08:57:01;;;;;;;16.40;12.73;;;;;;;;;;5044628;28;20104;-66
2022/03/29 08:59:27;;;;;;;15.57;11.52;;;;;;;;;;5038105;28;20455;-67
2022/03/29 09:01:56;;;;;;;20.70;13.23;;;;;;;;;;5044627;28;20097;-67
2022/03/29 09:04:23;;;;;;;20.80;12.82;;;;;;;;;;5049857;28;20021;-66
2022/03/29 09:06:58;;;;;;;18.98;12.70;;;;;;;;;;5048889;28;20430;-66
2022/03/29 09:09:26;;;;;;;21.38;12.98;;;;;;;;;;5041894;28;20028;-67
2022/03/29 09:11:55;;;;;;;16.48;12.45;;;;;;;;;;5044439;28;20090;-67
2022/03/29 09:14:22;;;;;;;17.20;12.52;;;;;;;;;;5043949;28;20024;-67
2022/03/29 09:16:49;;;;;;;19.75;12.30;;;;;;;;;;5043885;28;20064;-67
2022/03/29 09:19:15;;;;;;;18.40;13.30;;;;;;;;;;5052173;28;20499;-67
2022/03/29 09:21:42;;;;;;;19.67;13.18;;;;;;;;;;5046642;28;20025;-67
2022/03/29 09:24:08;;;;;;;16.40;12.50;;;;;;;;;;5043913;28;20502;-67
2022/03/29 09:26:36;;;;;;;19.02;12.65;;;;;;;;;;5045704;28;20787;-67
2022/03/29 09:29:03;;;;;;;18.60;12.25;;;;;;;;;;5043238;28;20018;-67
2022/03/29 09:31:29;;;;;;;19.20;12.73;;;;;;;;;;5030019;28;20104;-65
2022/03/29 09:34:11;;;;;;;17.17;12.50;;;;;;;;;;5031753;28;20048;-67
2022/03/29 09:36:48;;;;;;;20.67;12.95;;;;;;;;;;5032145;28;20028;-67
2022/03/29 09:39:34;;;;;;;20.60;12.95;;;;;;;;;;5032006;28;20029;-66
2022/03/29 09:42:02;;;;;;;21.17;13.27;;;;;;;;;;5030402;28;20149;-67
2022/03/29 09:44:40;;;;;;;16.20;12.33;;;;;;;;;;5028084;28;20021;-67
2022/03/29 09:47:07;;;;;;;;;;;;;;;;;;5031412;28;20111;-66
2022/03/29 09:49:53;;;;;;;18.88;12.13;;;;;;;;;;5030067;28;19905;-66
2022/03/29 09:52:20;;;;;;;20.08;12.85;;;;;;;;;;5029827;28;20024;-66
2022/03/29 09:55:06;;;;;;;21.10;12.18;;;;;;;;;;5031103;28;20033;-67
2022/03/29 09:57:39;;;;;;;19.90;12.10;;;;;;;;;;5029570;28;20061;-67
2022/03/29 10:00:10;;;;;;;20.70;13.35;;;;;;;;;;5029057;28;20413;-67
2022/03/29 10:02:37;;;;;;;23.73;13.07;;;;;;;;;;5031070;28;20105;-67
2022/03/29 10:05:04;;;;;;;18.90;13.45;;;;;;;;;;5030348;28;20028;-66
2022/03/29 10:07:32;;;;;;;17.95;13.38;;;;;;;;;;5030382;28;20025;-67
2022/03/29 10:09:58;;;;;;;18.60;14.18;;;;;;;;;;5031882;28;20110;-65
2022/03/29 10:12:25;;;;;;;18.38;12.68;;;;;;;;;;5029649;28;20037;-67
2022/03/29 10:14:54;;;;;;;19.95;14.40;;;;;;;;;;5030455;28;20481;-66
2022/03/29 10:17:22;;;;;;;19.88;13.73;;;;;;;;;;5030200;28;20048;-67
2022/03/29 10:19:49;;;;;;;19.73;12.57;;;;;;;;;;5029491;28;20021;-67
2022/03/29 10:22:15;;;;;;;21.20;14.02;;;;;;;;;;5031700;28;20026;-66
2022/03/29 10:24:41;;;;;;;19.80;12.70;;;;;;;;;;5030388;28;20103;-67
2022/03/29 10:27:08;;;;;;;19.15;13.48;;;;;;;;;;5029903;28;20025;-66
2022/03/29 10:29:35;;;;;;;22.42;12.85;;;;;;;;;;5030536;28;20025;-66
2022/03/29 10:32:05;;;;;;;20.77;14.18;;;;;;;;;;5029979;28;20087;-67
2022/03/29 10:34:37;;;;;;;23.42;14.15;;;;;;;;;;5029210;28;20360;-66
2022/03/29 10:37:21;;;;;;;20.58;14.40;;;;;;;;;;5030506;28;20036;-66
2022/03/29 10:39:50;;;;;;;24.67;16.50;;;;;;;;;;5027580;28;20029;-67
2022/03/29 10:42:40;;;;;;;20.10;14.70;;;;;;;;;;5025039;28;20038;-67
2022/03/29 10:45:27;;;;;;;20.30;15.23;;;;;;;;;;5022706;28;20029;-66
2022/03/29 10:47:56;;;;;;;26.08;16.73;;;;;;;;;;5023526;28;20079;-65
2022/03/29 10:50:22;;;;;;;21.58;15.95;;;;;;;;;;5023581;28;20381;-66
2022/03/29 10:52:49;;;;;;;20.83;15.80;;;;;;;;;;5022792;28;20293;-66
2022/03/29 10:55:18;;;;;;;26.75;16.48;;;;;;;;;;5026886;28;20021;-67
2022/03/29 10:58:07;;;;;;;28.45;16.63;;;;;;;;;;5024900;28;20140;-66
2022/03/29 11:00:34;;;;;;;21.98;16.92;;;;;;;;;;5019984;28;20065;-65
2022/03/29 11:03:22;;;;;;;22.52;17.00;;;;;;;;;;5025204;28;20374;-66
2022/03/29 11:06:06;;;;;;;26.48;16.15;;;;;;;;;;5023857;28;20469;-66
2022/03/29 11:08:34;;;;;;;23.27;16.20;;;;;;;;;;5024756;28;20132;-66
2022/03/29 11:11:00;;;;;;;26.80;16.97;;;;;;;;;;5027974;28;20025;-66
2022/03/29 11:13:34;;;;;;;22.23;16.63;;;;;;;;;;5027634;28;20519;-68
2022/03/29 11:16:02;;;;;;;22.30;14.98;;;;;;;;;;5030833;28;20465;-67
2022/03/29 11:18:31;;;;;;;25.42;14.88;;;;;;;;;;5029838;28;20025;-68
2022/03/29 11:21:02;;;;;;;24.40;16.52;;;;;;;;;;5030301;28;20079;-66
2022/03/29 11:23:42;;;;;;;21.70;15.48;;;;;;;;;;5035288;28;20161;-68
2022/03/29 11:26:12;;;;;;;23.75;16.17;;;;;;;;;;5032203;28;20051;-67
2022/03/29 11:29:04;;;;;;;25.08;16.60;;;;;;;;;;5033381;28;20080;-67
2022/03/29 11:31:40;;;;;;;24.88;14.88;;;;;;;;;;5032664;28;20497;-68
2022/03/29 11:34:09;;;;;;;24.10;17.02;;;;;;;;;;5036058;28;20061;-67
2022/03/29 11:36:36;;;;;;;27.63;14.48;;;;;;;;;;5034183;28;20073;-68
2022/03/29 11:39:02;;;;;;;26.95;16.95;;;;;;;;;;5035179;28;20034;-68
2022/03/29 11:41:29;;;;;;;23.02;16.65;;;;;;;;;;5033292;28;20041;-69
2022/03/29 11:44:15;;;;;;;23.95;16.15;;;;;;;;;;5033264;28;20025;-67
2022/03/29 11:46:43;;;;;;;25.52;17.20;;;;;;;;;;5033144;28;20029;-67
2022/03/29 11:49:09;;;;;;;27.52;17.00;;;;;;;;;;5037065;28;20025;-67
2022/03/29 11:51:35;;;;;;;26.20;18.80;;;;;;;;;;5033893;28;20041;-67
2022/03/29 11:54:01;;;;;;;25.45;16.85;;;;;;;;;;5039786;28;20444;-67
2022/03/29 11:56:27;;;;;;;23.55;15.23;;;;;;;;;;5043700;28;20063;-66
2022/03/29 11:58:55;;;;;;;26.30;15.50;;;;;;;;;;5032221;28;20056;-66
2022/03/29 12:01:27;;;;;;;25.60;16.77;;;;;;;;;;5034938;28;20124;-68
2022/03/29 12:04:00;;;;;;;25.83;18.42;;;;;;;;;;5035810;28;20259;-66
2022/03/29 12:06:27;;;;;;;28.63;17.40;;;;;;;;;;5033771;28;20025;-67
2022/03/29 12:08:56;;;;;;;24.08;15.40;;;;;;;;;;5033156;28;20048;-67
2022/03/29 12:11:26;;;;;;;26.23;19.25;;;;;;;;;;5033060;28;20029;-67
2022/03/29 12:14:03;;;;;;;23.88;14.98;;;;;;;;;;5033026;28;20026;-67
2022/03/29 12:16:30;;;;;;;24.90;17.00;;;;;;;;;;5031833;28;20032;-67
2022/03/29 12:18:56;;;;;;;26.38;18.05;;;;;;;;;;5035907;28;20018;-68
2022/03/29 12:21:23;;;;;;;27.45;18.75;;;;;;;;;;5042601;28;20060;-67
2022/03/29 12:23:49;;;;;;;26.98;17.88;;;;;;;;;;5045194;28;20033;-68
2022/03/29 12:26:17;;;;;;;31.88;18.52;;;;;;;;;;5044978;28;20025;-67
2022/03/29 12:28:43;;;;;;;28.98;17.65;;;;;;;;;;5045616;28;20376;-67
2022/03/29 12:31:11;;;;;;;27.92;17.35;;;;;;;;;;5052245;28;20056;-67
2022/03/29 12:33:37;;;;;;;30.90;18.48;;;;;;;;;;5044738;28;20029;-68
2022/03/29 12:36:08;;;;;;;26.67;16.25;;;;;;;;;;5043621;28;20379;-68
2022/03/29 12:38:41;;;;;;;26.73;18.35;;;;;;;;;;5044407;28;20048;-67
2022/03/29 12:41:08;;;;;;;23.83;13.88;;;;;;;;;;5045146;28;20106;-68
2022/03/29 12:43:35;;;;;;;26.58;17.60;;;;;;;;;;5048099;28;20033;-68
2022/03/29 12:46:01;;;;;;;29.92;16.27;;;;;;;;;;5049536;28;20013;-68
2022/03/29 12:48:28;;;;;;;26.05;16.02;;;;;;;;;;5044950;28;20029;-68
2022/03/29 12:50:54;;;;;;;26.05;17.42;;;;;;;;;;5044927;28;20021;-67
2022/03/29 12:53:20;;;;;;;28.38;18.33;;;;;;;;;;5044672;28;20028;-67
2022/03/29 12:55:56;;;;;;;29.08;19.60;;;;;;;;;;5044580;28;20033;-69
2022/03/29 12:58:30;;;;;;;27.73;17.67;;;;;;;;;;5041949;28;20065;-69
2022/03/29 13:00:56;;;;;;;28.42;19.02;;;;;;;;;;5048838;28;20021;-66
2022/03/29 13:03:23;;;;;;;27.55;17.65;;;;;;;;;;5037869;28;20033;-67
2022/03/29 13:05:49;;;;;;;23.98;13.75;;;;;;;;;;5037373;28;20056;-68
2022/03/29 13:08:22;;;;;;;30.70;16.38;;;;;;;;;;5041135;28;20084;-68
2022/03/29 13:10:51;;;;;;;27.80;18.25;;;;;;;;;;5013192;28;20056;-67
2022/03/29 13:13:19;;;;;;;28.80;18.52;;;;;;;;;;5051923;28;20472;-67
2022/03/29 13:15:51;;;;;;;24.80;15.95;;;;;;;;;;5049159;28;20083;-68
2022/03/29 13:18:22;;;;;;;26.48;17.52;;;;;;;;;;5041059;28;20045;-68
2022/03/29 13:20:48;;;;;;;30.00;19.52;;;;;;;;;;5043298;28;20090;-69
2022/03/29 13:23:28;;;;;;;24.95;18.15;;;;;;;;;;5044115;28;20392;-68
2022/03/29 13:25:54;;;;;;;27.25;18.35;;;;;;;;;;5014950;28;20541;-68
2022/03/29 13:28:20;;;;;;;28.80;18.90;;;;;;;;;;5050235;28;20108;-68
2022/03/29 13:30:46;;;;;;;31.45;20.38;;;;;;;;;;5046012;28;20041;-68
2022/03/29 13:33:12;;;;;;;32.67;19.67;;;;;;;;;;5044079;28;20029;-68
2022/03/29 13:35:50;;;;;;;30.65;19.30;;;;;;;;;;5043666;28;20036;-68
2022/03/29 13:38:18;;;;;;;31.50;20.42;;;;;;;;;;5044127;28;20128;-67
2022/03/29 13:40:45;;;;;;;36.13;23.05;;;;;;;;;;5013165;28;20076;-68
2022/03/29 13:43:11;;;;;;;37.35;21.65;;;;;;;;;;5042693;28;20017;-67
2022/03/29 13:45:37;;;;;;;35.22;24.05;;;;;;;;;;5043051;28;20032;-68
2022/03/29 13:48:03;;;;;;;35.63;23.13;;;;;;;;;;5043351;28;20470;-68
2022/03/29 13:50:30;;;;;;;36.38;22.52;;;;;;;;;;5043571;28;20521;-68
2022/03/29 13:52:56;;;;;;;33.72;21.98;;;;;;;;;;5043919;28;20014;-67
2022/03/29 13:55:22;;;;;;;36.85;23.15;;;;;;;;;;5049088;28;20021;-68
2022/03/29 13:57:48;;;;;;;35.70;23.38;;;;;;;;;;5041699;28;20030;-68
2022/03/29 14:00:17;;;;;;;38.35;23.33;;;;;;;;;;5039865;28;20040;-67
2022/03/29 14:02:43;;;;;;;36.08;24.13;;;;;;;;;;5043561;28;20036;-68
2022/03/29 14:05:09;;;;;;;33.92;21.45;;;;;;;;;;5043201;28;20082;-68
2022/03/29 14:07:35;;;;;;;39.55;23.10;;;;;;;;;;5046815;28;20047;-68
2022/03/29 14:10:01;;;;;;;36.55;23.27;;;;;;;;;;5048795;28;20022;-68
2022/03/29 14:12:27;;;;;;;33.80;22.55;;;;;;;;;;5043218;28;20487;-68
2022/03/29 14:14:53;;;;;;;34.55;22.77;;;;;;;;;;5043117;28;20500;-68
2022/03/29 14:17:19;;;;;;;36.88;23.58;;;;;;;;;;5042966;28;20040;-68
2022/03/29 14:19:49;;;;;;;35.25;22.75;;;;;;;;;;5043960;28;20032;-68
2022/03/29 14:22:16;;;;;;;41.20;25.15;;;;;;;;;;5050809;28;20078;-68
2022/03/29 14:24:42;;;;;;;37.50;24.80;;;;;;;;;;5045148;28;20024;-68
2022/03/29 14:27:08;;;;;;;33.78;22.60;;;;;;;;;;5043146;28;20028;-68
2022/03/29 14:29:34;;;;;;;36.08;23.65;;;;;;;;;;5043288;28;20029;-68
2022/03/29 14:32:02;;;;;;;36.83;22.50;;;;;;;;;;5043055;28;20044;-68